Time;durP1;ratioP1;P1;durP2;ratioP2;P2;SDS_P1;SDS_P2;PMS_P1;PMS_P2;Temp;Humidity;BMP_temperature;BMP_pressure;BME280_temperature;BME280_humidity;BME280_pressure;Samples;Min_cycle;Max_cycle;Signal;HPM_P1;HPM_P2
2024/03/18 00:00:55;;;;;;;5.25;0.88;;;;;;;7.19;74.50;101160.50;5120645;28;20031;-73
2024/03/18 00:03:27;;;;;;;8.07;0.93;;;;;;;7.14;74.47;101151.03;5126586;28;20026;-74
2024/03/18 00:05:57;;;;;;;6.28;0.90;;;;;;;7.08;75.20;101149.38;5117815;28;20031;-75
2024/03/18 00:08:27;;;;;;;7.57;1.20;;;;;;;7.19;75.48;101151.84;5141633;28;20031;-74
2024/03/18 00:10:58;;;;;;;8.10;1.20;;;;;;;7.09;76.39;101151.09;5126867;28;20034;-75
2024/03/18 00:13:28;;;;;;;9.15;1.33;;;;;;;7.03;75.34;101145.97;5128778;28;20571;-73
2024/03/18 00:15:58;;;;;;;7.07;1.08;;;;;;;7.07;75.90;101137.25;5122831;28;20035;-74
2024/03/18 00:18:29;;;;;;;6.25;1.15;;;;;;;7.04;75.36;101137.31;5120470;28;20385;-74
2024/03/18 00:20:59;;;;;;;7.70;0.70;;;;;;;7.06;75.22;101140.75;5123474;28;20035;-74
2024/03/18 00:23:30;;;;;;;10.90;1.70;;;;;;;7.14;74.20;101140.66;5124597;28;20490;-75
2024/03/18 00:26:01;;;;;;;5.00;0.95;;;;;;;7.06;74.76;101140.75;5128726;28;20670;-72
2024/03/18 00:28:32;;;;;;;8.95;1.40;;;;;;;7.00;74.49;101129.56;5123452;28;20031;-75
2024/03/18 00:31:02;;;;;;;9.25;1.10;;;;;;;6.96;74.62;101135.69;5120221;28;20027;-74
2024/03/18 00:33:32;;;;;;;4.10;0.80;;;;;;;7.00;74.55;101134.75;5119534;28;20019;-75
2024/03/18 00:36:03;;;;;;;7.53;1.08;;;;;;;7.00;74.94;101129.56;5117408;28;20035;-73
2024/03/18 00:38:34;;;;;;;6.95;1.40;;;;;;;6.97;74.87;101132.19;5127237;28;20018;-75
2024/03/18 00:43:54;;;;;;;11.10;1.40;;;;;;;6.84;74.67;101123.69;5124455;28;20062;-74
2024/03/18 00:46:24;;;;;;;7.72;1.10;;;;;;;6.84;75.17;101126.31;5124682;28;20023;-74
2024/03/18 00:48:54;;;;;;;5.68;1.20;;;;;;;6.89;75.81;101121.91;5121182;28;20063;-75
2024/03/18 00:51:25;;;;;;;8.27;1.30;;;;;;;6.83;75.95;101119.38;5120245;28;20119;-74
2024/03/18 00:53:55;;;;;;;6.25;1.17;;;;;;;6.81;75.75;101125.47;5121431;28;20025;-73
2024/03/18 00:56:27;;;;;;;8.80;1.40;;;;;;;6.63;76.01;101126.50;5122400;28;20034;-74
2024/03/18 00:58:57;;;;;;;6.35;1.25;;;;;;;6.73;76.22;101120.34;5124284;28;20031;-73
2024/03/18 01:01:27;;;;;;;7.45;1.75;;;;;;;6.67;76.32;101109.16;5120091;28;20037;-75
2024/03/18 01:03:59;;;;;;;8.00;1.30;;;;;;;6.68;75.81;101116.97;5128098;28;20051;-74
2024/03/18 01:06:30;;;;;;;6.57;1.30;;;;;;;6.65;76.57;101113.53;5122209;28;20293;-75
2024/03/18 01:09:00;;;;;;;9.70;1.35;;;;;;;6.66;76.46;101107.47;5120350;28;20022;-75
2024/03/18 01:11:33;;;;;;;9.07;1.30;;;;;;;6.52;76.99;101114.53;5127470;28;20029;-75
2024/03/18 01:14:03;;;;;;;5.57;1.00;;;;;;;6.51;76.33;101107.63;5124206;28;20453;-74
2024/03/18 01:16:33;;;;;;;6.70;1.50;;;;;;;6.60;76.65;101102.34;5123161;28;20027;-75
2024/03/18 01:19:04;;;;;;;7.93;1.45;;;;;;;6.61;77.22;101104.06;5124103;28;20027;-74
2024/03/18 01:21:34;;;;;;;5.75;1.65;;;;;;;6.41;76.94;101106.84;5141608;28;20023;-75
2024/03/18 01:24:05;;;;;;;8.35;1.60;;;;;;;6.37;77.36;101092.19;5124580;28;20666;-75
2024/03/18 01:26:36;;;;;;;9.60;1.58;;;;;;;6.29;77.02;101106.97;5125841;28;20106;-75
2024/03/18 01:29:07;;;;;;;7.90;1.52;;;;;;;6.42;77.01;101097.34;5140580;28;20379;-74
2024/03/18 01:31:37;;;;;;;6.65;1.73;;;;;;;6.30;77.15;101094.88;5123758;28;20029;-74
2024/03/18 01:34:11;;;;;;;8.77;1.60;;;;;;;6.35;77.27;101090.47;5122007;28;20019;-74
2024/03/18 01:36:41;;;;;;;7.10;1.40;;;;;;;6.23;77.03;101096.66;5125728;28;20110;-74
2024/03/18 01:39:17;;;;;;;6.30;1.60;;;;;;;6.18;77.34;101088.06;5124089;28;20118;-73
2024/03/18 01:41:48;;;;;;;8.05;1.73;;;;;;;6.11;78.41;101090.75;5118290;28;20111;-72
2024/03/18 01:44:20;;;;;;;10.57;1.95;;;;;;;6.07;77.91;101082.13;5113630;28;20055;-74
2024/03/18 01:46:50;;;;;;;10.82;1.45;;;;;;;6.07;77.78;101079.53;5127530;28;20109;-74
2024/03/18 01:49:21;;;;;;;6.45;1.10;;;;;;;5.95;78.46;101081.38;5128783;28;20118;-74
2024/03/18 01:51:52;;;;;;;6.47;1.30;;;;;;;6.05;78.26;101083.03;5125836;28;20077;-75
2024/03/18 01:54:22;;;;;;;4.85;1.35;;;;;;;5.88;78.18;101077.13;5130264;28;20027;-75
2024/03/18 01:56:52;;;;;;;6.90;1.33;;;;;;;5.85;78.96;101071.94;5140597;28;20077;-75
2024/03/18 01:59:24;;;;;;;8.85;1.75;;;;;;;5.87;79.09;101059.81;5125272;28;20091;-75
2024/03/18 02:01:54;;;;;;;7.28;1.73;;;;;;;5.89;79.39;101074.50;5123029;28;20515;-74
2024/03/18 02:04:25;;;;;;;10.80;1.50;;;;;;;5.84;79.45;101078.00;5124302;28;20023;-74
2024/03/18 02:06:55;;;;;;;6.05;1.27;;;;;;;5.95;78.69;101068.41;5125658;28;20090;-74
2024/03/18 02:09:27;;;;;;;4.57;1.17;;;;;;;5.90;78.83;101070.19;5127294;28;20027;-74
2024/03/18 02:11:57;;;;;;;6.78;1.45;;;;;;;5.93;79.49;101064.97;5125382;28;20724;-73
2024/03/18 02:14:27;;;;;;;5.78;1.27;;;;;;;5.87;79.58;101065.00;5141155;28;20035;-74
2024/03/18 02:16:57;;;;;;;5.55;1.27;;;;;;;5.75;79.84;101065.09;5126693;28;20033;-73
2024/03/18 02:19:28;;;;;;;7.40;1.30;;;;;;;5.79;79.60;101065.09;5124057;28;20027;-73
2024/03/18 02:22:03;;;;;;;6.03;1.38;;;;;;;5.81;79.76;101059.88;5123796;28;20031;-74
2024/03/18 02:24:33;;;;;;;7.10;1.98;;;;;;;5.62;80.51;101048.78;5125509;28;20445;-75
2024/03/18 02:27:08;;;;;;;6.72;1.60;;;;;;;5.75;80.00;101047.78;5125097;28;20043;-74
2024/03/18 02:29:39;;;;;;;6.22;1.40;;;;;;;5.78;80.24;101055.56;5124772;28;20025;-73
2024/03/18 02:32:10;;;;;;;9.25;1.40;;;;;;;5.78;79.87;101059.88;5119714;28;20036;-74
2024/03/18 02:34:40;;;;;;;7.93;1.38;;;;;;;5.75;80.46;101054.72;5122324;28;20397;-72
2024/03/18 02:37:11;;;;;;;7.30;1.58;;;;;;;5.74;80.19;101051.25;5122349;28;20095;-74
2024/03/18 02:39:41;;;;;;;9.23;1.65;;;;;;;5.69;80.29;101049.56;5119312;28;20030;-72
2024/03/18 02:42:12;;;;;;;6.80;1.58;;;;;;;5.61;80.97;101049.63;5126288;28;20105;-74
2024/03/18 02:44:42;;;;;;;7.65;1.83;;;;;;;5.64;80.80;101035.78;5127985;28;20045;-73
2024/03/18 02:47:12;;;;;;;15.45;2.38;;;;;;;5.61;81.24;101038.41;5124330;28;20566;-74
2024/03/18 02:49:43;;;;;;;6.07;1.42;;;;;;;5.69;81.00;101039.19;5142140;28;20062;-72
2024/03/18 02:52:13;;;;;;;5.93;1.70;;;;;;;5.72;81.29;101036.59;5123097;28;20035;-73
2024/03/18 02:54:44;;;;;;;4.57;1.50;;;;;;;5.54;81.32;101034.16;5122751;28;20865;-72
2024/03/18 02:57:14;;;;;;;8.23;1.50;;;;;;;5.51;81.42;101035.03;5122815;28;20113;-74
2024/03/18 02:59:44;;;;;;;8.60;2.00;;;;;;;5.48;81.07;101032.47;5124304;28;20159;-72
2024/03/18 03:02:14;;;;;;;12.68;2.67;;;;;;;5.50;81.67;101029.84;5104412;28;20034;-74
2024/03/18 03:04:45;;;;;;;7.10;1.50;;;;;;;5.29;82.93;101017.06;5122442;28;20106;-74
2024/03/18 03:07:15;;;;;;;4.80;1.50;;;;;;;5.36;82.49;101021.31;5122002;28;20034;-74
2024/03/18 03:09:46;;;;;;;3.67;1.25;;;;;;;5.36;82.08;101012.69;5124367;28;20058;-73
2024/03/18 03:12:16;;;;;;;4.38;1.38;;;;;;;5.32;82.54;101005.84;5126624;28;20038;-74
2024/03/18 03:14:47;;;;;;;8.25;1.50;;;;;;;5.31;82.58;100994.59;5125663;28;20022;-74
2024/03/18 03:17:17;;;;;;;4.55;1.45;;;;;;;5.45;81.97;101008.31;5124719;28;20047;-74
2024/03/18 03:19:47;;;;;;;9.55;1.52;;;;;;;5.38;81.92;101008.38;5122740;28;20030;-75
2024/03/18 03:22:21;;;;;;;6.25;1.70;;;;;;;5.40;82.13;101016.09;5125337;28;20032;-75
2024/03/18 03:24:51;;;;;;;6.35;1.50;;;;;;;5.51;81.50;101019.50;5123850;28;20371;-75
2024/03/18 03:27:21;;;;;;;5.97;1.63;;;;;;;5.56;81.84;101015.13;5122824;28;20035;-72
2024/03/18 03:29:52;;;;;;;6.25;1.48;;;;;;;5.53;81.83;101012.56;5120418;28;20086;-75
2024/03/18 03:32:22;;;;;;;5.00;1.40;;;;;;;5.59;81.75;101016.84;5121357;28;20031;-73
2024/03/18 03:34:52;;;;;;;5.57;1.75;;;;;;;5.47;81.81;101011.75;5122393;28;20027;-75
2024/03/18 03:37:24;;;;;;;5.18;1.85;;;;;;;5.50;82.36;101010.00;5122557;28;20066;-74
2024/03/18 03:39:54;;;;;;;7.30;1.88;;;;;;;5.21;83.61;101008.50;5124505;28;20038;-73
2024/03/18 03:42:25;;;;;;;7.18;1.95;;;;;;;5.23;83.38;101006.75;5121800;28;20023;-74
2024/03/18 03:44:55;;;;;;;7.25;2.40;;;;;;;5.37;83.63;101010.13;5139416;28;20113;-74
2024/03/18 03:47:26;;;;;;;4.75;1.55;;;;;;;5.16;83.83;100999.88;5121109;28;20038;-74
2024/03/18 03:49:56;;;;;;;5.85;2.22;;;;;;;5.16;84.06;100992.09;5123688;28;20049;-74
2024/03/18 03:52:26;;;;;;;8.18;2.20;;;;;;;5.12;84.40;100993.00;5122467;28;20129;-74
2024/03/18 03:54:57;;;;;;;9.02;2.00;;;;;;;5.19;84.25;100989.50;5124521;28;20570;-74
2024/03/18 03:57:27;;;;;;;6.60;1.90;;;;;;;5.15;85.08;100985.22;5128504;28;20027;-75
2024/03/18 03:59:57;;;;;;;9.00;2.25;;;;;;;5.36;84.25;100992.81;5126597;28;20034;-74
2024/03/18 04:02:28;;;;;;;7.93;1.98;;;;;;;5.30;84.14;100984.25;5123157;28;20156;-74
2024/03/18 04:04:59;;;;;;;5.60;2.03;;;;;;;5.28;83.48;100973.91;5126183;28;20038;-75
2024/03/18 04:07:29;;;;;;;9.52;2.95;;;;;;;5.28;82.84;100984.25;5118837;28;20654;-74
2024/03/18 04:09:59;;;;;;;6.43;2.03;;;;;;;5.12;83.19;100984.41;5141411;28;20035;-73
2024/03/18 04:12:30;;;;;;;8.07;2.17;;;;;;;5.30;83.31;100982.50;5123880;28;20027;-74
2024/03/18 04:15:01;;;;;;;9.30;2.22;;;;;;;5.37;82.77;100984.19;5124146;28;20118;-73
2024/03/18 04:17:32;;;;;;;7.82;2.05;;;;;;;5.48;82.65;100978.03;5120282;28;20034;-74
2024/03/18 04:20:15;;;;;;;12.13;2.17;;;;;;;5.42;82.10;100982.41;5123264;28;20418;-74
2024/03/18 04:22:46;;;;;;;9.82;2.47;;;;;;;5.36;82.86;100992.81;5122083;28;20826;-72
2024/03/18 04:25:18;;;;;;;8.52;2.13;;;;;;;5.22;82.49;100989.50;5118838;28;20030;-74
2024/03/18 04:27:49;;;;;;;5.38;2.00;;;;;;;5.24;82.63;100989.47;5122145;28;20418;-75
2024/03/18 04:30:20;;;;;;;8.52;2.22;;;;;;;5.23;82.33;100983.44;5121530;28;20031;-75
2024/03/18 04:32:50;;;;;;;8.82;2.20;;;;;;;5.32;82.48;100980.75;5121551;28;20035;-74
2024/03/18 04:35:20;;;;;;;10.85;2.63;;;;;;;5.21;82.74;100976.53;5121845;28;20028;-74
2024/03/18 04:37:55;;;;;;;9.60;2.33;;;;;;;5.18;83.05;100974.81;5121874;28;20046;-74
2024/03/18 04:40:27;;;;;;;8.77;1.80;;;;;;;5.13;83.10;100973.16;5119391;28;20023;-74
2024/03/18 04:42:57;;;;;;;7.10;2.38;;;;;;;5.11;82.79;100967.13;5124433;28;20066;-74
2024/03/18 04:45:27;;;;;;;4.35;2.20;;;;;;;4.87;83.57;100970.75;5124582;28;20510;-74
2024/03/18 04:47:58;;;;;;;4.65;2.38;;;;;;;4.97;83.53;100964.63;5126426;28;20034;-74
2024/03/18 04:50:28;;;;;;;10.57;2.35;;;;;;;4.89;84.21;100962.94;5126803;28;20450;-74
2024/03/18 04:52:59;;;;;;;7.35;2.40;;;;;;;4.85;84.32;100956.97;5127907;28;20081;-75
2024/03/18 04:55:29;;;;;;;7.25;2.42;;;;;;;4.78;83.82;100952.69;5123441;28;20027;-74
2024/03/18 04:58:00;;;;;;;7.60;2.47;;;;;;;4.95;83.28;100953.41;5120437;28;20026;-72
2024/03/18 05:00:32;;;;;;;7.82;2.58;;;;;;;5.04;83.14;100957.69;5125893;28;20628;-73
2024/03/18 05:03:02;;;;;;;8.30;3.20;;;;;;;4.98;83.19;100948.22;5141166;28;20055;-74
2024/03/18 05:05:32;;;;;;;11.25;2.70;;;;;;;4.98;82.96;100953.38;5127959;28;20061;-74
2024/03/18 05:08:03;;;;;;;7.70;2.47;;;;;;;5.00;83.08;100949.06;5125527;28;20046;-75
2024/03/18 05:10:33;;;;;;;11.07;2.42;;;;;;;4.77;83.43;100955.28;5128669;28;20094;-74
2024/03/18 05:13:05;;;;;;;5.60;2.20;;;;;;;4.89;83.42;100947.41;5143330;28;20023;-74
2024/03/18 05:15:37;;;;;;;5.15;2.33;;;;;;;4.85;83.13;100941.44;5125181;28;20114;-74
2024/03/18 05:18:07;;;;;;;11.10;3.50;;;;;;;4.94;82.75;100943.94;5124484;28;20062;-74
2024/03/18 05:20:38;;;;;;;7.82;2.47;;;;;;;4.94;83.04;100945.69;5124338;28;20027;-74
2024/03/18 05:23:08;;;;;;;11.43;3.55;;;;;;;4.90;83.52;100941.38;5125423;28;20054;-74
2024/03/18 05:25:38;;;;;;;6.88;2.30;;;;;;;4.90;83.25;100937.06;5124979;28;20624;-74
2024/03/18 05:28:09;;;;;;;10.13;3.20;;;;;;;4.88;83.01;100940.53;5124852;28;20074;-74
2024/03/18 05:30:40;;;;;;;11.65;3.08;;;;;;;4.84;83.06;100944.00;5126875;28;20031;-73
2024/03/18 05:33:11;;;;;;;8.52;2.60;;;;;;;4.87;83.69;100938.81;5141469;28;20026;-74
2024/03/18 05:35:41;;;;;;;9.10;2.45;;;;;;;4.80;83.88;100939.72;5125876;28;20029;-74
2024/03/18 05:38:11;;;;;;;7.57;3.28;;;;;;;4.78;84.68;100949.25;5140044;28;20030;-75
2024/03/18 05:40:42;;;;;;;7.47;2.30;;;;;;;4.82;83.12;100944.00;5127379;28;20029;-73
2024/03/18 05:43:12;;;;;;;6.75;2.70;;;;;;;4.79;83.99;100953.56;5126039;28;20015;-75
2024/03/18 05:45:42;;;;;;;9.15;2.90;;;;;;;4.66;83.56;100950.16;5141589;28;20039;-74
2024/03/18 05:48:12;;;;;;;8.63;3.00;;;;;;;4.88;83.81;100949.16;5124074;28;20019;-74
2024/03/18 05:50:43;;;;;;;10.77;3.05;;;;;;;4.91;83.16;100949.13;5126483;28;20137;-73
2024/03/18 05:53:14;;;;;;;5.55;2.70;;;;;;;4.92;82.45;100958.63;5122217;28;20409;-74
2024/03/18 05:55:44;;;;;;;5.47;2.58;;;;;;;5.06;82.02;100958.53;5123673;28;20033;-74
2024/03/18 05:58:14;;;;;;;9.63;3.22;;;;;;;4.95;82.90;100956.00;5123326;28;20047;-75
2024/03/18 06:00:46;;;;;;;5.68;2.40;;;;;;;4.99;82.45;100951.69;5128562;28;20097;-74
2024/03/18 06:03:16;;;;;;;7.97;2.90;;;;;;;4.93;82.53;100949.97;5126009;28;20026;-75
2024/03/18 06:05:46;;;;;;;10.18;3.30;;;;;;;4.83;82.96;100963.84;5124128;28;20027;-74
2024/03/18 06:08:17;;;;;;;7.97;3.33;;;;;;;4.97;83.04;100946.50;5124763;28;20034;-74
2024/03/18 06:10:47;;;;;;;8.77;2.90;;;;;;;4.98;82.86;100961.16;5124485;28;20030;-72
2024/03/18 06:13:17;;;;;;;7.07;3.28;;;;;;;4.94;82.53;100948.28;5140613;28;20034;-74
2024/03/18 06:15:48;;;;;;;8.05;3.10;;;;;;;5.04;82.98;100955.97;5121440;28;20066;-72
2024/03/18 06:18:18;;;;;;;10.05;3.50;;;;;;;5.13;82.79;100947.25;5122392;28;20050;-74
2024/03/18 06:20:50;;;;;;;9.88;3.47;;;;;;;5.15;83.47;100951.53;5127079;28;20030;-72
2024/03/18 06:23:27;;;;;;;8.02;3.15;;;;;;;5.18;81.94;100956.69;5123743;28;20035;-74
2024/03/18 06:25:58;;;;;;;6.07;2.63;;;;;;;5.33;81.86;100950.53;5125127;28;20158;-73
2024/03/18 06:28:32;;;;;;;6.40;2.97;;;;;;;5.34;81.67;100949.66;5124417;28;20027;-74
2024/03/18 06:31:03;;;;;;;11.68;3.70;;;;;;;5.26;81.56;100957.50;5141093;28;20022;-74
2024/03/18 06:33:33;;;;;;;6.78;3.00;;;;;;;5.19;81.12;100953.22;5125166;28;20494;-74
2024/03/18 06:36:10;;;;;;;7.47;2.97;;;;;;;5.26;80.85;100957.50;5124201;28;20131;-74
2024/03/18 06:38:41;;;;;;;6.78;2.90;;;;;;;5.35;81.25;100949.63;5126781;28;20038;-73
2024/03/18 06:41:12;;;;;;;7.68;3.00;;;;;;;5.23;81.70;100952.34;5126102;28;20026;-74
2024/03/18 06:43:42;;;;;;;7.22;3.20;;;;;;;5.24;81.48;100960.97;5122816;28;20066;-74
2024/03/18 06:46:12;;;;;;;8.20;2.90;;;;;;;5.15;82.42;100956.72;5127488;28;20159;-74
2024/03/18 06:48:43;;;;;;;12.43;3.10;;;;;;;5.13;81.90;100955.03;5123817;28;20030;-74
2024/03/18 06:51:14;;;;;;;9.02;2.90;;;;;;;5.29;81.95;100954.88;5119149;28;20121;-74
2024/03/18 06:53:44;;;;;;;6.60;2.85;;;;;;;5.18;82.44;100955.84;5122973;28;20073;-74
2024/03/18 06:56:16;;;;;;;9.73;3.35;;;;;;;5.28;82.10;100952.28;5122898;28;20597;-72
2024/03/18 06:58:46;;;;;;;7.88;2.63;;;;;;;5.27;82.16;100953.16;5126178;28;20038;-74
2024/03/18 07:01:16;;;;;;;9.55;2.80;;;;;;;5.44;81.72;100954.75;5054563;28;20935;-72
2024/03/18 07:03:46;;;;;;;6.40;2.78;;;;;;;5.62;81.39;100955.47;4991071;28;20047;-72
2024/03/18 07:06:17;;;;;;;8.63;2.65;;;;;;;5.72;81.35;100956.22;4991181;28;20040;-72
2024/03/18 07:08:47;;;;;;;9.02;3.42;;;;;;;5.97;81.30;100955.13;5000538;28;20150;-72
2024/03/18 07:11:17;;;;;;;9.65;3.00;;;;;;;6.42;80.50;100946.78;4987917;28;20078;-72
2024/03/18 07:13:48;;;;;;;8.25;2.75;;;;;;;6.51;78.60;100947.53;5006811;28;20460;-72
2024/03/18 07:16:18;;;;;;;6.45;2.92;;;;;;;6.78;79.13;100944.53;4990247;28;20122;-72
2024/03/18 07:18:49;;;;;;;7.05;2.55;;;;;;;6.96;78.28;100946.84;4987968;28;20159;-72
2024/03/18 07:21:19;;;;;;;14.43;2.70;;;;;;;6.96;77.28;100946.84;4994900;28;20054;-72
2024/03/18 07:23:50;;;;;;;8.60;3.13;;;;;;;6.86;77.96;100941.81;4992722;28;21998;-72
2024/03/18 07:26:21;;;;;;;6.00;2.72;;;;;;;6.96;77.22;100935.63;4994903;28;20095;-72
2024/03/18 07:28:52;;;;;;;7.78;2.50;;;;;;;7.21;76.83;100942.13;5078108;28;20031;-72
2024/03/18 07:31:22;;;;;;;7.65;2.80;;;;;;;7.74;74.53;100937.75;5126054;28;20034;-74
2024/03/18 07:33:52;;;;;;;14.57;2.50;;;;;;;9.40;70.59;100921.91;5122237;28;20106;-74
2024/03/18 07:36:23;;;;;;;9.90;2.25;;;;;;;9.52;68.36;100925.94;5122333;28;20141;-74
2024/03/18 07:38:53;;;;;;;7.18;2.20;;;;;;;9.13;67.67;100927.78;5122428;28;20389;-74
2024/03/18 07:41:24;;;;;;;5.50;2.10;;;;;;;9.63;68.30;100924.78;5131279;28;20096;-75
2024/03/18 07:43:55;;;;;;;7.00;2.30;;;;;;;9.77;67.63;100924.41;5123923;28;20049;-74
2024/03/18 07:46:25;;;;;;;7.72;2.50;;;;;;;9.28;67.60;100932.63;5048788;28;20043;-72
2024/03/18 07:48:55;;;;;;;6.63;2.38;;;;;;;8.72;70.76;100932.25;5004050;28;20032;-72
2024/03/18 07:51:26;;;;;;;8.32;2.40;;;;;;;8.22;70.79;100922.06;4989201;28;20032;-72
2024/03/18 07:53:56;;;;;;;7.90;2.80;;;;;;;8.40;71.71;100924.28;4990159;28;20115;-72
2024/03/18 07:56:27;;;;;;;6.47;2.20;;;;;;;8.30;70.87;100929.72;4990496;28;20406;-72
2024/03/18 07:58:58;;;;;;;9.98;2.65;;;;;;;7.97;72.02;100935.56;4990182;28;20038;-72
2024/03/18 08:01:28;;;;;;;7.75;2.58;;;;;;;8.16;71.56;100929.97;4990980;28;20050;-72
2024/03/18 08:04:00;;;;;;;9.85;2.83;;;;;;;7.89;72.36;100930.50;4986565;28;21639;-72
2024/03/18 08:06:31;;;;;;;6.93;2.47;;;;;;;7.18;74.71;100932.66;4990547;28;20036;-72
2024/03/18 08:09:01;;;;;;;8.43;2.58;;;;;;;7.32;75.57;100926.34;4994874;28;20843;-72
2024/03/18 08:11:31;;;;;;;8.57;2.20;;;;;;;7.59;73.82;100923.28;4990228;28;20054;-72
2024/03/18 08:14:02;;;;;;;6.78;2.22;;;;;;;7.57;75.12;100926.78;4987269;28;20091;-72
2024/03/18 08:16:33;;;;;;;7.97;2.78;;;;;;;7.81;74.72;100911.59;4992300;28;20110;-72
2024/03/18 08:19:03;;;;;;;8.60;2.70;;;;;;;8.15;74.11;100909.16;4992598;28;20051;-72
2024/03/18 08:21:34;;;;;;;7.72;2.75;;;;;;;8.29;73.38;100918.47;4992277;28;20628;-72
2024/03/18 08:24:05;;;;;;;7.95;2.60;;;;;;;8.45;73.44;100912.03;5008545;28;20174;-72
2024/03/18 08:26:35;;;;;;;8.25;2.53;;;;;;;9.52;70.06;100892.88;5030129;28;20043;-72
2024/03/18 08:29:06;;;;;;;5.82;2.10;;;;;;;10.39;67.36;100894.81;5043067;28;20368;-72
2024/03/18 08:31:36;;;;;;;6.60;2.33;;;;;;;10.20;66.24;100904.91;5043385;28;20035;-72
2024/03/18 08:34:07;;;;;;;7.82;1.90;;;;;;;11.73;63.02;100900.84;5103893;28;20087;-75
2024/03/18 08:36:37;;;;;;;5.22;1.83;;;;;;;11.84;64.18;100896.09;5125093;28;20026;-76
2024/03/18 08:39:09;;;;;;;8.73;2.47;;;;;;;11.20;65.08;100900.91;5122761;28;20561;-75
2024/03/18 08:41:40;;;;;;;7.13;2.65;;;;;;;12.16;63.62;100895.75;5123162;28;20027;-75
2024/03/18 08:44:10;;;;;;;7.32;2.10;;;;;;;11.85;63.86;100894.31;5118241;28;20046;-75
2024/03/18 08:46:42;;;;;;;7.95;2.30;;;;;;;11.62;63.55;100892.50;5124484;28;20045;-75
2024/03/18 08:49:13;;;;;;;8.55;2.28;;;;;;;10.61;63.88;100911.53;5122446;28;20263;-75
2024/03/18 08:51:44;;;;;;;6.85;2.22;;;;;;;11.15;63.79;100894.97;5123122;28;20034;-73
2024/03/18 08:54:16;;;;;;;9.23;2.47;;;;;;;12.76;64.24;100893.44;5118726;28;20039;-75
2024/03/18 08:56:46;;;;;;;5.82;2.30;;;;;;;11.32;63.77;100896.16;5124261;28;20033;-73
2024/03/18 08:59:16;;;;;;;7.93;1.92;;;;;;;10.51;64.41;100894.44;5119099;28;20482;-75
2024/03/18 09:01:48;;;;;;;8.10;2.13;;;;;;;10.33;66.32;100887.16;5123010;28;20030;-74
2024/03/18 09:04:18;;;;;;;7.07;2.55;;;;;;;12.32;65.04;100878.56;5120886;28;20030;-75
2024/03/18 09:06:50;;;;;;;7.88;2.28;;;;;;;11.06;64.65;100890.91;5124733;28;20045;-75
2024/03/18 09:09:20;;;;;;;7.15;2.30;;;;;;;11.03;66.36;100884.91;5121641;28;20123;-75
2024/03/18 09:11:51;;;;;;;5.65;1.85;;;;;;;9.76;67.84;100891.38;5124128;28;20115;-75
2024/03/18 09:14:22;;;;;;;9.02;2.60;;;;;;;10.46;69.31;100881.50;5120933;28;20113;-74
2024/03/18 09:16:52;;;;;;;4.75;1.90;;;;;;;10.19;67.87;100879.72;5123597;28;20031;-75
2024/03/18 09:19:23;;;;;;;5.63;2.00;;;;;;;10.22;69.20;100884.00;5120655;28;20034;-74
2024/03/18 09:21:53;;;;;;;8.48;1.80;;;;;;;9.67;68.15;100894.25;5123747;28;20030;-73
2024/03/18 09:24:24;;;;;;;7.00;1.90;;;;;;;9.60;69.29;100893.53;5119815;28;20549;-74
2024/03/18 09:26:54;;;;;;;8.35;2.00;;;;;;;9.92;69.58;100885.69;5125492;28;20028;-72
2024/03/18 09:29:24;;;;;;;6.75;2.20;;;;;;;10.17;67.83;100876.28;5141625;28;20170;-74
2024/03/18 09:31:54;;;;;;;8.00;1.95;;;;;;;10.06;69.19;100881.00;5127033;28;20042;-72
2024/03/18 09:34:25;;;;;;;7.38;2.20;;;;;;;9.84;69.20;100884.19;5126469;28;20042;-74
2024/03/18 09:36:55;;;;;;;8.95;2.35;;;;;;;9.74;69.78;100881.00;5129341;28;20031;-73
2024/03/18 09:39:25;;;;;;;9.45;2.30;;;;;;;9.57;69.68;100891.03;5123110;28;20031;-75
2024/03/18 09:41:56;;;;;;;7.57;2.20;;;;;;;9.63;70.39;100874.34;5138219;28;20713;-72
2024/03/18 09:44:26;;;;;;;8.93;2.53;;;;;;;10.02;70.10;100876.72;5138543;28;20059;-74
2024/03/18 09:46:58;;;;;;;5.47;1.80;;;;;;;9.89;69.96;100877.09;5127706;28;20034;-72
2024/03/18 09:49:30;;;;;;;7.70;2.22;;;;;;;9.66;70.39;100893.38;5127715;28;20034;-73
2024/03/18 09:52:04;;;;;;;7.20;2.15;;;;;;;9.50;70.28;100893.84;5129485;28;20117;-74
2024/03/18 09:54:34;;;;;;;9.90;2.42;;;;;;;9.85;69.53;100883.31;5127491;28;20031;-74
2024/03/18 09:57:11;;;;;;;7.13;2.10;;;;;;;9.57;69.72;100896.25;5128467;28;20034;-73
2024/03/18 09:59:43;;;;;;;6.07;2.08;;;;;;;9.27;70.92;100899.63;5129854;28;20042;-75
2024/03/18 10:02:17;;;;;;;9.65;2.22;;;;;;;9.59;70.77;100893.56;5127131;28;20027;-75
2024/03/18 10:04:47;;;;;;;8.13;2.47;;;;;;;9.56;71.98;100891.06;5144767;28;20122;-75
2024/03/18 10:07:18;;;;;;;7.93;2.60;;;;;;;9.53;72.27;100902.44;5127042;28;21634;-75
2024/03/18 10:09:49;;;;;;;7.88;2.30;;;;;;;8.97;71.98;100903.88;5129234;28;20461;-74
2024/03/18 10:12:20;;;;;;;9.85;2.60;;;;;;;9.60;74.13;100897.91;5125623;28;20549;-75
2024/03/18 10:14:50;;;;;;;8.43;3.08;;;;;;;9.42;73.07;100898.38;5122635;28;20314;-74
2024/03/18 10:17:21;;;;;;;7.13;2.80;;;;;;;9.48;72.70;100887.81;5124596;28;20023;-75
2024/03/18 10:19:51;;;;;;;8.23;2.47;;;;;;;9.45;71.73;100891.34;5128830;28;20062;-74
2024/03/18 10:22:21;;;;;;;4.50;2.00;;;;;;;9.66;71.85;100898.59;5126588;28;20030;-75
2024/03/18 10:24:52;;;;;;;7.90;2.63;;;;;;;9.93;71.83;100894.38;5125960;28;20031;-75
2024/03/18 10:27:22;;;;;;;8.23;2.35;;;;;;;9.90;71.23;100892.72;5126015;28;20475;-75
2024/03/18 10:29:53;;;;;;;6.55;2.50;;;;;;;10.04;71.88;100894.97;5127885;28;20041;-75
2024/03/18 10:32:27;;;;;;;7.25;2.30;;;;;;;9.83;70.08;100887.72;5126064;28;20505;-73
2024/03/18 10:35:01;;;;;;;6.60;2.58;;;;;;;9.59;70.97;100896.19;5125743;28;20409;-73
2024/03/18 10:37:32;;;;;;;9.18;2.97;;;;;;;9.74;70.27;100882.72;5123247;28;20426;-74
2024/03/18 10:40:05;;;;;;;5.75;2.25;;;;;;;9.67;69.50;100881.19;5125154;28;20042;-74
2024/03/18 10:42:44;;;;;;;7.60;2.25;;;;;;;9.97;69.78;100893.41;5123548;28;20028;-75
2024/03/18 10:45:18;;;;;;;7.68;2.63;;;;;;;10.10;69.92;100886.94;5121719;28;20026;-75
2024/03/18 10:47:50;;;;;;;8.75;2.58;;;;;;;9.87;70.80;100891.94;5127637;28;20035;-75
2024/03/18 10:50:21;;;;;;;8.52;2.53;;;;;;;9.51;70.09;100900.75;5140831;28;20035;-75
2024/03/18 10:52:54;;;;;;;8.77;2.65;;;;;;;9.85;71.10;100901.56;5119934;28;20034;-75
2024/03/18 10:55:26;;;;;;;13.52;2.72;;;;;;;9.78;69.52;100900.00;5126895;28;20291;-75
2024/03/18 10:57:59;;;;;;;8.52;2.83;;;;;;;9.76;70.01;100901.81;5122386;28;20078;-72
2024/03/18 11:00:30;;;;;;;9.10;2.83;;;;;;;10.12;70.49;100890.38;5138475;28;20027;-74
2024/03/18 11:03:03;;;;;;;7.53;2.22;;;;;;;10.20;69.47;100883.19;5126967;28;20031;-74
2024/03/18 11:05:33;;;;;;;9.98;2.70;;;;;;;10.61;69.86;100880.19;5125946;28;20509;-74
2024/03/18 11:08:06;;;;;;;10.68;2.97;;;;;;;10.63;69.85;100891.44;5127271;28;20045;-75
2024/03/18 11:10:38;;;;;;;10.25;3.15;;;;;;;10.39;69.52;100873.91;5123155;28;20065;-75
2024/03/18 11:13:08;;;;;;;9.38;2.95;;;;;;;10.47;69.53;100882.34;5124898;28;20090;-74
2024/03/18 11:15:53;;;;;;;12.02;2.95;;;;;;;10.68;68.59;100885.19;5124388;28;20486;-75
2024/03/18 11:18:27;;;;;;;7.18;2.58;;;;;;;10.99;67.81;100882.47;5123987;28;20364;-74
2024/03/18 11:20:59;;;;;;;5.80;2.40;;;;;;;11.02;66.39;100865.75;5127027;28;20325;-72
2024/03/18 11:23:32;;;;;;;6.88;3.13;;;;;;;11.31;68.30;100868.25;5125368;28;20051;-75
2024/03/18 11:26:05;;;;;;;9.13;2.60;;;;;;;11.36;66.71;100874.19;5128692;28;20034;-75
2024/03/18 11:28:41;;;;;;;8.15;2.40;;;;;;;11.39;64.14;100873.22;5126350;28;20038;-75
2024/03/18 11:31:14;;;;;;;7.88;2.72;;;;;;;11.60;65.66;100862.91;5123371;28;20035;-75
2024/03/18 11:33:44;;;;;;;5.60;2.58;;;;;;;11.68;65.60;100858.28;5123883;28;20046;-74
2024/03/18 11:36:17;;;;;;;8.43;3.08;;;;;;;11.58;64.79;100854.25;5123617;28;20030;-75
2024/03/18 11:38:47;;;;;;;10.32;2.90;;;;;;;11.73;65.94;100863.31;5128750;28;20089;-75
2024/03/18 11:41:18;;;;;;;9.63;2.90;;;;;;;11.73;66.33;100856.34;5124026;28;20031;-75
2024/03/18 11:43:49;;;;;;;8.25;2.83;;;;;;;11.90;65.43;100851.34;5142714;28;20038;-74
2024/03/18 11:46:19;;;;;;;7.47;2.67;;;;;;;12.06;65.87;100841.13;5130360;28;20026;-75
2024/03/18 11:49:00;;;;;;;6.57;2.35;;;;;;;11.60;63.20;100852.44;5130521;28;20023;-75
2024/03/18 11:51:30;;;;;;;8.10;2.58;;;;;;;11.98;63.29;100848.44;5129338;28;20066;-75